createdAt,value
2018-07-24T00:00:45.568Z,148984.28
2018-07-24T00:03:16.806Z,148965.59
2018-07-24T00:05:49.320Z,148961.86
2018-07-24T00:08:20.661Z,148929.42
2018-07-24T00:10:51.933Z,148939.39
2018-07-24T00:13:23.167Z,148959.31
2018-07-24T00:15:55.306Z,148958.08
2018-07-24T00:18:28.043Z,148959.31
2018-07-24T00:20:59.388Z,148949.36
2018-07-24T00:23:31.216Z,148946.86
2018-07-24T00:26:02.218Z,148964.36
2018-07-24T00:28:33.727Z,148978.06
2018-07-24T00:31:05.929Z,148979.31
2018-07-24T00:33:37.970Z,148993.00
2018-07-24T00:36:09.181Z,149011.75
2018-07-24T00:38:40.644Z,149029.19
2018-07-24T00:41:11.636Z,149041.66
2018-07-24T00:43:42.756Z,149037.91
2018-07-24T00:46:14.935Z,148914.42
2018-07-24T00:48:46.026Z,149030.44
2018-07-24T00:51:17.137Z,149041.66
2018-07-24T00:53:48.740Z,149030.44
2018-07-24T00:56:20.783Z,149027.94
2018-07-24T00:58:53.139Z,149002.97
2018-07-24T01:01:24.336Z,148988.03
2018-07-24T01:03:55.475Z,148984.28
2018-07-24T01:06:26.656Z,148989.27
2018-07-24T01:08:58.780Z,148970.58
2018-07-24T01:11:30.022Z,148975.56
2018-07-24T01:14:01.489Z,148975.56
2018-07-24T01:16:32.525Z,148955.59
2018-07-24T01:19:03.702Z,148958.08
2018-07-24T01:21:34.984Z,148926.94
2018-07-24T01:24:07.331Z,148916.92
2018-07-24T01:26:38.700Z,148906.91
2018-07-24T01:29:09.935Z,148910.64
2018-07-24T01:31:41.065Z,148896.94
2018-07-24T01:34:12.592Z,148889.47
2018-07-24T01:36:43.688Z,148882.00
2018-07-24T01:39:14.661Z,148916.92
2018-07-24T01:41:47.977Z,148908.16
2018-07-24T01:44:19.379Z,148904.42
2018-07-24T01:46:50.537Z,148889.47
2018-07-24T01:49:23.272Z,148884.48
2018-07-24T01:51:54.653Z,148886.97
2018-07-24T01:54:26.639Z,148879.50
2018-07-24T01:56:58.941Z,148874.52
2018-07-24T01:59:30.436Z,148862.02
2018-07-24T02:02:01.597Z,148843.34
2018-07-24T02:04:42.058Z,148829.63
2018-07-24T02:07:14.473Z,148835.86
2018-07-24T02:09:46.121Z,148838.36
2018-07-24T02:12:17.138Z,148832.12
2018-07-24T02:14:50.833Z,148835.86
2018-07-24T02:17:22.191Z,148810.91
2018-07-24T02:19:53.475Z,148790.98
2018-07-24T02:22:25.109Z,148777.28
2018-07-24T02:24:56.848Z,148789.73
2018-07-24T02:27:28.613Z,148747.36
2018-07-24T02:29:59.901Z,148747.36
2018-07-24T02:32:33.380Z,148752.34
2018-07-24T02:35:04.805Z,148759.81
2018-07-24T02:37:36.821Z,148744.88
2018-07-24T02:40:08.354Z,148764.78
2018-07-24T02:42:39.353Z,148744.88
2018-07-24T02:45:12.077Z,148728.69
2018-07-24T02:47:43.159Z,148731.17
2018-07-24T02:50:14.476Z,148723.66
2018-07-24T02:52:45.580Z,148707.42
2018-07-24T02:55:17.773Z,148707.42
2018-07-24T02:57:48.959Z,148702.44
2018-07-24T03:00:20.067Z,148711.16
2018-07-24T03:02:51.410Z,148707.42
2018-07-24T03:05:22.564Z,148729.92
2018-07-24T03:07:54.966Z,148727.44
2018-07-24T03:10:26.152Z,148734.91
2018-07-24T03:12:57.095Z,148729.92
2018-07-24T03:15:28.975Z,148744.88
2018-07-24T03:18:00.165Z,148756.06
2018-07-24T03:20:31.761Z,148794.72
2018-07-24T03:23:03.229Z,148788.50
2018-07-24T03:25:35.053Z,148810.91
2018-07-24T03:28:06.420Z,148847.06
2018-07-24T03:30:37.355Z,148874.52
2018-07-24T03:33:09.282Z,148865.75
2018-07-24T03:35:41.829Z,148884.48
2018-07-24T03:38:12.815Z,148893.20
2018-07-24T03:40:44.151Z,148904.42
2018-07-24T03:43:15.532Z,148918.16
2018-07-24T03:45:47.198Z,148939.39
2018-07-24T03:48:18.445Z,148986.78
2018-07-24T03:50:49.537Z,149071.61
2018-07-24T03:54:57.664Z,149154.02
2018-07-24T03:57:28.859Z,149236.34
2018-07-24T03:59:59.862Z,149277.53
2018-07-24T04:02:31.091Z,149306.27
2018-07-24T04:05:02.126Z,149325.02
2018-07-24T04:07:33.543Z,149353.75
2018-07-24T04:10:04.791Z,149406.19
2018-07-24T04:12:36.004Z,149426.14
2018-07-24T04:15:08.066Z,149526.09
2018-07-24T04:17:39.372Z,149528.59
2018-07-24T04:20:10.726Z,149634.81
2018-07-24T04:22:43.587Z,149659.78
2018-07-24T04:25:14.895Z,149812.28
2018-07-24T04:27:49.688Z,149858.58
2018-07-24T04:30:21.829Z,149966.14
2018-07-24T04:32:52.894Z,150084.98
2018-07-24T04:35:23.895Z,150247.72
2018-07-24T04:37:55.122Z,150263.97
2018-07-24T04:40:27.335Z,150138.78
2018-07-24T04:42:59.037Z,150048.70
2018-07-24T04:45:29.937Z,149923.62
2018-07-24T04:48:00.922Z,149919.88
2018-07-24T04:50:32.121Z,149886.11
2018-07-24T04:53:03.181Z,149746.06
2018-07-24T05:27:27.978Z,149816.08
2018-07-24T05:30:00.076Z,149783.56
2018-07-24T05:32:31.087Z,149881.11
2018-07-24T05:35:02.252Z,149777.31
2018-07-24T05:37:34.711Z,149776.06
2018-07-24T05:40:05.979Z,149671.06
2018-07-24T05:42:37.264Z,149581.09
2018-07-24T05:45:09.001Z,149661.03
2018-07-24T05:47:40.303Z,149667.27
2018-07-24T05:50:11.468Z,149784.81
2018-07-24T05:52:42.669Z,149857.33
2018-07-24T05:55:13.794Z,149843.59
2018-07-24T05:57:45.714Z,149769.83
2018-07-24T06:00:16.897Z,149811.03
2018-07-24T06:02:49.756Z,149881.11
2018-07-24T06:05:21.048Z,149858.58
2018-07-24T06:07:52.636Z,149771.08
2018-07-24T06:10:23.705Z,149771.08
2018-07-24T06:15:36.362Z,149702.31
2018-07-24T06:18:08.026Z,149721.08
2018-07-24T06:20:39.516Z,149759.78
2018-07-24T06:23:11.017Z,149802.28
2018-07-24T06:25:43.106Z,149771.08
2018-07-24T06:28:14.371Z,149761.03
2018-07-24T06:30:46.412Z,149786.06
2018-07-24T06:33:17.211Z,149886.11
2018-07-24T06:35:50.525Z,149886.11
2018-07-24T06:38:22.758Z,149832.31
2018-07-24T06:40:54.726Z,149943.61
2018-07-24T06:43:26.602Z,149897.34
2018-07-24T06:45:58.584Z,150069.98
2018-07-24T06:48:29.538Z,150128.78
2018-07-24T06:51:00.903Z,150048.70
2018-07-24T06:53:32.376Z,150051.20
2018-07-24T06:56:03.565Z,150049.95
2018-07-24T06:58:34.851Z,150018.72
2018-07-24T07:01:05.942Z,149984.88
2018-07-24T07:03:37.038Z,150019.97
2018-07-24T07:06:08.410Z,149997.38
2018-07-24T07:08:41.245Z,150017.47
2018-07-24T07:11:12.693Z,149933.62
2018-07-24T07:13:44.060Z,149866.13
2018-07-24T07:16:15.553Z,149931.13
2018-07-24T07:18:46.958Z,149973.64
2018-07-24T07:21:18.080Z,149901.09
2018-07-24T07:23:49.349Z,149896.09
2018-07-24T07:26:20.699Z,149926.13
2018-07-24T07:28:52.126Z,150002.38
2018-07-24T07:31:24.024Z,149933.62
2018-07-24T07:33:55.995Z,149853.59
2018-07-24T07:36:28.517Z,149896.09
2018-07-24T07:38:59.880Z,149837.30
2018-07-24T07:41:31.104Z,149926.13
2018-07-24T07:44:02.610Z,150103.78
2018-07-24T07:46:34.373Z,150123.78
2018-07-24T07:49:05.969Z,150207.66
2018-07-24T07:51:37.355Z,150185.13
2018-07-24T07:54:09.758Z,150301.53
2018-07-24T07:56:41.058Z,150339.13
2018-07-24T07:59:12.747Z,150429.22
2018-07-24T08:01:44.131Z,150237.67
2018-07-24T08:04:15.569Z,150140.02
2018-07-24T08:06:46.515Z,150157.56
2018-07-24T08:09:17.777Z,150136.28
2018-07-24T08:11:48.941Z,150108.78
2018-07-24T08:14:20.019Z,150101.28
2018-07-24T08:16:53.281Z,150165.06
2018-07-24T08:19:24.700Z,150165.06
2018-07-24T08:21:57.258Z,150238.91
2018-07-24T08:24:28.550Z,150272.72
2018-07-24T08:27:00.413Z,150409.22
2018-07-24T08:29:32.806Z,150498.16
2018-07-24T08:32:04.316Z,150440.53
2018-07-24T08:34:36.474Z,150485.61
2018-07-24T08:37:08.283Z,150364.14
2018-07-24T08:39:39.695Z,150459.28
2018-07-24T08:42:10.922Z,150476.80
2018-07-24T08:44:41.984Z,150396.70
2018-07-24T08:47:13.131Z,150485.61
2018-07-24T08:49:45.474Z,150538.25
2018-07-24T08:52:16.602Z,150501.92
2018-07-24T08:54:48.122Z,150377.91
2018-07-24T08:57:19.665Z,150499.41
2018-07-24T08:59:50.464Z,150614.62
2018-07-24T09:02:21.335Z,150584.59
2018-07-24T09:04:52.657Z,150582.08
2018-07-24T09:07:23.958Z,150689.84
2018-07-24T09:09:54.985Z,150544.50
2018-07-24T09:12:28.179Z,150466.80
2018-07-24T09:14:59.345Z,150529.48
2018-07-24T09:17:30.433Z,150524.44
2018-07-24T09:20:01.788Z,150464.30
2018-07-24T09:22:33.176Z,150405.47
2018-07-24T09:25:04.627Z,150489.36
2018-07-24T09:27:36.308Z,150499.41
2018-07-24T09:30:07.340Z,150605.86
2018-07-24T09:32:38.648Z,150642.19
2018-07-24T09:35:09.745Z,150583.34
2018-07-24T09:37:40.941Z,150628.42
2018-07-24T09:40:12.455Z,150550.75
2018-07-24T09:42:44.274Z,150627.17
2018-07-24T09:45:15.367Z,150738.72
2018-07-24T09:47:46.640Z,150719.94
2018-07-24T09:50:17.840Z,150803.91
2018-07-24T09:52:50.412Z,150767.55
2018-07-24T09:55:21.555Z,150638.44
2018-07-24T09:57:54.915Z,150614.62
2018-07-24T10:00:32.746Z,150615.88
2018-07-24T10:03:05.438Z,150593.34
2018-07-24T10:05:36.642Z,150577.08
2018-07-24T10:08:08.250Z,150481.86
2018-07-24T10:10:39.648Z,150474.30
2018-07-24T10:13:10.791Z,150494.41
2018-07-24T10:15:42.883Z,150503.17
2018-07-24T10:18:14.037Z,150544.50
2018-07-24T10:20:45.916Z,150629.69
2018-07-24T10:23:17.077Z,150622.17
2018-07-24T10:25:47.777Z,150684.84
2018-07-24T10:28:18.887Z,150625.94
2018-07-24T10:30:51.344Z,150489.36
2018-07-24T10:33:22.616Z,150549.50
2018-07-24T10:35:53.704Z,150620.88
2018-07-24T10:38:25.760Z,150593.34
2018-07-24T10:40:56.869Z,150465.55
2018-07-24T10:43:28.213Z,150463.05
2018-07-24T10:46:01.515Z,150385.45
2018-07-24T10:48:33.576Z,150425.47
2018-07-24T10:51:05.468Z,150292.78
2018-07-24T10:53:36.630Z,150382.91
2018-07-24T10:56:07.808Z,150449.28
2018-07-24T10:58:39.253Z,150372.91
2018-07-24T11:01:10.795Z,150484.36
2018-07-24T11:03:42.153Z,150430.47
2018-07-24T11:06:13.184Z,150503.17
2018-07-24T11:08:45.907Z,150612.11
2018-07-24T11:11:17.536Z,150464.30
2018-07-24T11:13:48.945Z,150653.50
2018-07-24T11:16:20.457Z,150669.83
2018-07-24T11:18:51.904Z,150584.59
2018-07-24T11:21:23.292Z,150713.62
2018-07-24T11:23:54.446Z,150880.38
2018-07-24T11:26:27.357Z,150998.23
2018-07-24T11:28:59.424Z,151060.97
2018-07-24T11:31:30.931Z,151043.37
2018-07-24T11:34:03.016Z,151093.58
2018-07-24T11:36:35.172Z,150968.17
2018-07-24T11:39:10.807Z,151054.70
2018-07-24T11:41:43.013Z,151049.69
2018-07-24T11:44:14.062Z,151048.38
2018-07-24T11:46:45.237Z,151068.47
2018-07-24T11:49:17.612Z,151118.69
2018-07-24T11:51:49.899Z,151151.31
2018-07-24T11:54:21.220Z,151224.03
2018-07-24T11:56:52.823Z,151314.42
2018-07-24T11:59:24.103Z,151299.38
2018-07-24T12:01:56.221Z,151377.19
2018-07-24T12:04:27.665Z,151309.41
2018-07-24T12:07:01.120Z,151325.70
2018-07-24T12:09:33.875Z,151316.94
2018-07-24T12:12:05.144Z,151138.73
2018-07-24T12:14:37.562Z,151086.06
2018-07-24T12:17:09.441Z,151055.95
2018-07-24T12:19:40.703Z,150933.02
2018-07-24T12:22:12.205Z,150820.22
2018-07-24T12:24:43.611Z,150744.97
2018-07-24T12:27:14.972Z,150666.02
2018-07-24T12:29:46.704Z,150617.13
2018-07-24T12:32:18.265Z,150607.11
2018-07-24T12:34:50.371Z,150652.25
2018-07-24T12:37:21.713Z,150684.84
2018-07-24T12:39:53.799Z,150687.34
2018-07-24T12:42:25.326Z,150707.38
2018-07-24T12:44:56.894Z,150584.59
2018-07-24T12:47:33.000Z,150345.37
2018-07-24T12:50:06.333Z,150192.63
2018-07-24T12:52:38.802Z,150205.16
2018-07-24T12:55:10.346Z,150128.78
2018-07-24T12:57:43.043Z,150046.20
2018-07-24T13:00:15.966Z,150060.00
2018-07-24T13:02:47.791Z,150067.50
2018-07-24T13:05:20.870Z,150094.98
2018-07-24T13:07:52.572Z,150060.00
2018-07-24T13:10:24.518Z,150069.98
2018-07-24T13:12:56.048Z,150021.22
2018-07-24T13:15:28.511Z,149924.87
2018-07-24T13:17:59.918Z,149884.86
2018-07-24T13:20:31.834Z,149811.03
2018-07-24T13:23:03.019Z,149653.53
2018-07-24T13:25:34.354Z,149551.09
2018-07-24T13:28:05.744Z,149443.66
2018-07-24T13:30:37.200Z,149313.78
2018-07-24T13:33:09.569Z,149237.59
2018-07-24T13:35:40.844Z,149246.36
2018-07-24T13:38:12.116Z,149235.09
2018-07-24T13:40:43.513Z,149220.13
2018-07-24T13:43:15.777Z,149203.92
2018-07-24T13:45:46.950Z,149152.77
2018-07-24T13:48:19.645Z,149135.27
2018-07-24T13:50:51.180Z,149151.52
2018-07-24T13:53:22.634Z,149155.25
2018-07-24T13:55:54.174Z,149151.52
2018-07-24T13:58:26.021Z,149160.25
2018-07-24T14:00:58.453Z,149171.47
2018-07-24T14:03:30.827Z,149188.91
2018-07-24T14:06:04.343Z,149198.94
2018-07-24T14:08:36.720Z,149260.08
2018-07-24T14:11:08.248Z,149338.73
2018-07-24T14:13:39.804Z,149383.69
2018-07-24T14:16:11.321Z,149431.13
2018-07-24T14:18:42.967Z,149444.91
2018-07-24T14:21:15.233Z,149416.16
2018-07-24T14:23:47.080Z,149431.13
2018-07-24T14:28:56.204Z,149474.84
2018-07-24T14:31:27.562Z,149501.14
2018-07-24T14:33:58.512Z,149533.62
2018-07-24T14:36:31.315Z,149583.59
2018-07-24T14:39:02.601Z,149601.06
2018-07-24T14:41:33.673Z,149628.56
2018-07-24T14:44:05.680Z,149668.50
2018-07-24T14:46:39.281Z,149713.55
2018-07-24T14:49:12.730Z,149697.31
2018-07-24T14:51:43.964Z,149708.55
2018-07-24T14:54:15.064Z,149708.55
2018-07-24T14:56:46.449Z,149737.31
2018-07-24T14:59:17.462Z,149638.55
2018-07-24T15:01:48.539Z,149626.08
2018-07-24T15:04:20.097Z,149638.55
2018-07-24T15:06:51.474Z,149681.09
2018-07-24T15:09:27.940Z,149588.59
2018-07-24T15:11:59.623Z,149558.58
2018-07-24T15:14:30.646Z,149572.31
2018-07-24T15:17:01.769Z,149539.88
2018-07-24T15:19:33.102Z,149553.59
2018-07-24T15:22:05.280Z,149564.81
2018-07-24T15:24:36.633Z,149538.63
2018-07-24T15:27:08.800Z,149559.83
2018-07-24T15:29:39.949Z,149603.56
2018-07-24T15:32:11.220Z,149628.56
2018-07-24T15:34:42.367Z,149576.06
2018-07-24T15:37:15.075Z,149561.08
2018-07-24T15:39:46.130Z,149559.83
2018-07-24T15:42:18.461Z,149579.84
2018-07-24T15:44:50.753Z,149593.58
2018-07-24T15:47:21.953Z,149613.55
2018-07-24T15:49:53.677Z,149603.56
2018-07-24T15:52:25.268Z,149598.56
2018-07-24T15:54:56.546Z,149606.06
2018-07-24T15:57:27.602Z,149607.30
2018-07-24T15:59:59.670Z,149628.56
2018-07-24T16:02:31.294Z,149636.06
2018-07-24T16:05:02.669Z,149558.58
2018-07-24T16:07:34.066Z,149551.09
2018-07-24T16:10:05.711Z,149586.09
2018-07-24T16:12:37.578Z,149497.39
2018-07-24T16:15:09.976Z,149482.37
2018-07-24T16:17:42.644Z,149476.09
2018-07-24T16:20:14.324Z,149484.87
2018-07-24T16:22:45.675Z,149446.16
2018-07-24T16:25:17.069Z,149451.14
2018-07-24T16:27:48.622Z,149472.34
2018-07-24T16:30:21.810Z,149458.63
2018-07-24T16:32:54.293Z,149458.63
2018-07-24T16:35:26.225Z,149428.64
2018-07-24T16:37:59.209Z,149451.14
2018-07-24T16:40:31.512Z,149482.37
2018-07-24T16:43:02.633Z,149488.61
2018-07-24T16:45:34.501Z,149472.34
2018-07-24T16:48:05.846Z,149444.91
2018-07-24T16:50:37.468Z,149397.45
2018-07-24T16:53:08.669Z,149406.19
2018-07-24T16:55:40.848Z,149404.94
2018-07-24T16:58:12.645Z,149422.41
2018-07-24T17:00:43.857Z,149423.66
2018-07-24T17:03:16.833Z,149384.94
2018-07-24T17:05:51.524Z,149366.22
2018-07-24T17:08:24.183Z,149343.77
2018-07-24T17:10:57.112Z,149333.75
2018-07-24T17:13:29.683Z,149312.55
2018-07-24T17:16:01.341Z,149310.05
2018-07-24T17:18:32.894Z,149296.28
2018-07-24T17:21:04.304Z,149280.03
2018-07-24T17:23:36.421Z,149275.05
2018-07-24T17:26:08.364Z,149247.61
2018-07-24T17:28:41.733Z,149232.59
2018-07-24T17:31:13.431Z,149230.11
2018-07-24T17:33:46.044Z,149228.86
2018-07-24T17:36:17.319Z,149216.39
2018-07-24T17:38:48.462Z,149225.12
2018-07-24T17:41:20.145Z,149235.09
2018-07-24T17:43:54.417Z,149243.81
2018-07-24T17:46:26.291Z,149233.84
2018-07-24T17:48:57.470Z,149210.16
2018-07-24T17:51:29.836Z,149188.91
2018-07-24T17:54:01.678Z,149167.72
2018-07-24T17:56:34.349Z,149168.97
2018-07-24T17:59:07.450Z,149181.44
2018-07-24T18:01:38.584Z,149181.44
2018-07-24T18:04:09.705Z,149168.97
2018-07-24T18:06:41.321Z,149176.45
2018-07-24T18:09:14.220Z,149159.00
2018-07-24T18:11:45.901Z,149146.48
2018-07-24T18:14:18.430Z,149146.48
2018-07-24T18:16:50.996Z,149141.50
2018-07-24T18:19:24.170Z,149144.00
2018-07-24T18:21:56.248Z,149121.56
2018-07-24T18:24:29.972Z,149122.81
2018-07-24T18:27:01.053Z,149135.27
2018-07-24T18:29:33.839Z,149110.30
2018-07-24T18:32:05.160Z,149111.53
2018-07-24T18:34:37.995Z,149089.06
2018-07-24T18:37:09.505Z,149100.27
2018-07-24T18:39:40.917Z,149109.05
2018-07-24T18:42:12.141Z,149089.06
2018-07-24T18:44:43.476Z,149097.78
2018-07-24T18:47:15.026Z,149084.06
2018-07-24T18:49:45.780Z,149069.12
2018-07-24T18:52:16.678Z,149074.09
2018-07-24T18:54:47.494Z,149076.59
2018-07-24T18:57:18.335Z,149049.12
2018-07-24T18:59:49.366Z,149065.38
2018-07-24T19:02:20.819Z,149070.36
2018-07-24T19:04:53.011Z,149077.84
2018-07-24T19:07:25.186Z,149062.88
2018-07-24T19:09:56.129Z,149050.38
2018-07-24T19:12:27.979Z,149037.91
2018-07-24T19:15:01.670Z,149037.91
2018-07-24T19:17:32.438Z,149027.94
2018-07-24T19:20:03.155Z,149037.91
2018-07-24T19:22:37.669Z,149055.36
2018-07-24T19:25:08.545Z,149051.63
2018-07-24T19:27:39.316Z,149041.66
2018-07-24T19:30:12.166Z,149065.38
2018-07-24T19:32:44.046Z,149071.61
2018-07-24T19:35:17.988Z,149071.61
2018-07-24T19:37:50.047Z,149070.36
2018-07-24T19:40:22.491Z,149055.36
2018-07-24T19:42:53.726Z,149090.30
2018-07-24T19:45:25.102Z,149075.34
2018-07-24T19:47:57.750Z,149049.12
2018-07-24T19:50:29.008Z,149071.61
2018-07-24T19:53:01.953Z,149067.87
2018-07-24T19:55:33.422Z,149080.33
2018-07-24T19:58:05.662Z,149077.84
2018-07-24T20:00:37.318Z,149092.80
2018-07-24T20:03:08.742Z,149101.52
2018-07-24T20:05:40.035Z,149097.78
2018-07-24T20:08:11.383Z,149114.03
2018-07-24T20:10:42.452Z,149089.06
2018-07-24T20:13:14.892Z,149091.55
2018-07-24T20:15:46.504Z,149057.91
2018-07-24T20:18:18.774Z,149037.91
2018-07-24T20:20:50.262Z,149044.14
2018-07-24T20:23:21.859Z,149046.64
2018-07-24T20:25:52.889Z,149059.16
2018-07-24T20:28:24.120Z,149061.64
2018-07-24T20:30:56.417Z,149076.59
2018-07-24T20:33:27.511Z,149059.16
2018-07-24T20:35:58.838Z,149057.91
2018-07-24T20:38:31.676Z,149066.62
2018-07-24T20:41:05.890Z,149060.39
2018-07-24T20:43:38.489Z,149076.59
2018-07-24T20:46:10.855Z,149074.09
2018-07-24T20:48:43.398Z,149072.84
2018-07-24T20:51:15.284Z,149069.12
2018-07-24T20:53:48.391Z,149064.13
2018-07-24T20:56:22.273Z,149047.89
2018-07-24T20:58:54.240Z,149065.38
2018-07-24T21:01:27.727Z,149062.88
2018-07-24T21:03:59.943Z,149086.56
2018-07-24T21:06:35.829Z,149076.59
2018-07-24T21:09:13.474Z,149094.03
2018-07-24T21:11:47.510Z,149071.61
2018-07-24T21:14:23.335Z,149069.12
2018-07-24T21:16:58.057Z,149074.09
2018-07-24T21:19:30.983Z,149072.84
2018-07-24T21:22:03.712Z,149074.09
2018-07-24T21:24:36.156Z,149050.38
2018-07-24T21:27:09.246Z,149056.66
2018-07-24T21:29:46.035Z,149056.66
2018-07-24T21:32:19.627Z,149041.66
2018-07-24T21:34:53.557Z,149049.12
2018-07-24T21:37:27.390Z,149044.14
2018-07-24T21:40:02.324Z,149035.42
2018-07-24T21:42:39.197Z,149009.25
2018-07-24T21:45:11.562Z,149014.23
2018-07-24T21:47:43.995Z,149021.72
2018-07-24T21:50:18.195Z,149009.25
2018-07-24T21:52:49.567Z,149006.72
2018-07-24T21:55:21.180Z,148980.55
2018-07-24T21:57:53.357Z,148747.36
2018-07-24T22:00:27.669Z,148969.34
2018-07-24T22:02:59.819Z,148975.56
2018-07-24T22:05:32.409Z,148976.81
2018-07-24T22:08:04.398Z,148984.28
2018-07-24T22:10:36.910Z,148936.89
2018-07-24T22:13:18.100Z,148938.14
2018-07-24T22:16:04.326Z,148943.13
2018-07-24T22:18:47.272Z,148926.94
2018-07-24T22:21:35.645Z,148938.14
2018-07-24T22:24:08.809Z,148944.38
2018-07-24T22:26:40.621Z,148940.64
2018-07-24T22:29:12.417Z,148936.89
2018-07-24T22:31:43.981Z,148946.86
2018-07-24T22:34:15.216Z,148930.67
2018-07-24T22:36:48.549Z,148931.91
2018-07-24T22:42:33.440Z,148936.89
2018-07-24T22:48:07.619Z,148919.41
2018-07-24T22:50:39.721Z,148911.89
2018-07-24T22:53:12.733Z,148911.89
2018-07-24T22:55:44.807Z,148910.64
2018-07-24T22:58:16.854Z,148903.17
2018-07-24T23:00:50.155Z,148916.92
2018-07-24T23:06:10.116Z,148931.91
2018-07-24T23:08:42.019Z,148926.94
2018-07-24T23:11:15.989Z,148899.44
2018-07-24T23:13:48.599Z,148911.89
2018-07-24T23:16:20.351Z,148911.89
2018-07-24T23:18:52.797Z,148926.94
2018-07-24T23:21:24.398Z,148926.94
2018-07-24T23:23:56.264Z,148926.94
2018-07-24T23:26:27.937Z,148904.42
2018-07-24T23:28:59.172Z,148925.69
2018-07-24T23:31:30.603Z,148935.66
2018-07-24T23:34:01.918Z,148933.16
2018-07-24T23:36:33.353Z,148929.42
2018-07-24T23:39:05.069Z,148930.67
2018-07-24T23:41:36.331Z,148954.34
2018-07-24T23:44:07.436Z,148959.31
2018-07-24T23:46:38.998Z,148949.36
2018-07-24T23:49:10.140Z,148936.89
2018-07-24T23:51:42.845Z,148946.86
2018-07-24T23:54:13.941Z,148944.38
2018-07-24T23:56:44.928Z,148931.91
2018-07-24T23:59:15.938Z,148920.66
